Time;durP1;ratioP1;P1;durP2;ratioP2;P2;SDS_P1;SDS_P2;PMS_P1;PMS_P2;Temp;Humidity;BMP_temperature;BMP_pressure;BME280_temperature;BME280_humidity;BME280_pressure;Samples;Min_cycle;Max_cycle;Signal;HPM_P1;HPM_P2
2021/08/24 00:01:09;;;;;;;9.85;5.03;;;15.30;99.90;;;;;;6156064;23;20020;-75
2021/08/24 00:03:35;;;;;;;7.65;6.03;;;15.30;99.90;;;;;;6156556;23;20032;-76
2021/08/24 00:06:01;;;;;;;6.25;5.55;;;15.30;99.90;;;;;;6129369;23;20341;-76
2021/08/24 00:08:27;;;;;;;8.35;5.70;;;15.30;99.90;;;;;;6155551;23;20001;-76
2021/08/24 00:10:56;;;;;;;9.90;6.13;;;15.30;99.90;;;;;;6155275;23;20016;-77
2021/08/24 00:13:24;;;;;;;10.60;5.60;;;15.30;99.90;;;;;;6156850;23;20021;-76
2021/08/24 00:15:50;;;;;;;7.10;5.88;;;15.40;99.90;;;;;;6156950;23;20096;-76
2021/08/24 00:18:18;;;;;;;13.18;5.97;;;15.40;99.90;;;;;;6157077;23;20352;-76
2021/08/24 00:20:46;;;;;;;6.55;4.72;;;15.40;99.90;;;;;;6156409;23;20006;-76
2021/08/24 00:23:15;;;;;;;7.07;5.38;;;15.40;99.90;;;;;;6156679;23;20437;-75
2021/08/24 00:25:41;;;;;;;8.25;5.70;;;15.40;99.90;;;;;;6158539;23;20009;-75
2021/08/24 00:28:08;;;;;;;7.57;5.95;;;15.40;99.90;;;;;;6155297;23;20005;-76
2021/08/24 00:30:37;;;;;;;7.32;5.85;;;15.40;99.90;;;;;;6155204;23;20035;-76
2021/08/24 00:33:03;;;;;;;9.07;5.53;;;15.40;99.90;;;;;;6158125;23;20030;-75
2021/08/24 00:35:29;;;;;;;10.35;5.70;;;15.40;99.90;;;;;;6159199;23;20001;-76
2021/08/24 00:37:55;;;;;;;8.43;5.90;;;15.40;99.90;;;;;;6159065;23;20013;-76
2021/08/24 00:40:22;;;;;;;6.40;5.60;;;15.40;99.90;;;;;;6131670;23;20359;-76
2021/08/24 00:42:49;;;;;;;7.38;5.68;;;15.30;99.90;;;;;;6161115;23;20001;-76
2021/08/24 00:45:16;;;;;;;7.57;5.10;;;15.30;99.90;;;;;;6156394;23;20017;-76
2021/08/24 00:47:45;;;;;;;7.20;5.88;;;15.30;99.90;;;;;;6157018;23;20499;-76
2021/08/24 00:50:31;;;;;;;11.23;6.60;;;15.30;99.90;;;;;;6132909;23;20341;-77
2021/08/24 00:53:09;;;;;;;8.32;5.75;;;15.20;99.90;;;;;;6164318;23;20020;-76
2021/08/24 00:55:38;;;;;;;9.07;5.90;;;15.20;99.90;;;;;;6155850;23;20009;-76
2021/08/24 00:58:07;;;;;;;6.90;6.10;;;15.20;99.90;;;;;;6155750;23;20380;-76
2021/08/24 01:00:34;;;;;;;10.80;5.85;;;15.20;99.90;;;;;;6156944;23;20017;-76
2021/08/24 01:03:09;;;;;;;6.78;5.35;;;15.20;99.90;;;;;;6131150;23;20037;-75
2021/08/24 01:05:36;;;;;;;9.43;6.10;;;15.20;99.90;;;;;;6129417;23;20466;-77
2021/08/24 01:08:24;;;;;;;7.75;5.28;;;15.20;99.90;;;;;;6157697;23;20001;-75
2021/08/24 01:11:00;;;;;;;8.18;6.05;;;15.20;99.90;;;;;;6158852;23;20001;-75
2021/08/24 01:13:35;;;;;;;6.80;5.45;;;15.20;99.90;;;;;;6156470;23;20013;-75
2021/08/24 01:16:01;;;;;;;10.02;6.07;;;15.20;99.90;;;;;;6158583;23;20005;-77
2021/08/24 01:18:53;;;;;;;7.95;5.85;;;15.20;99.90;;;;;;6156255;23;20100;-76
2021/08/24 01:21:56;;;;;;;8.75;5.68;;;15.20;99.90;;;;;;6156623;23;20083;-77
2021/08/24 01:24:49;;;;;;;9.60;6.38;;;15.10;99.90;;;;;;6155110;23;20009;-76
2021/08/24 01:27:39;;;;;;;9.98;5.43;;;15.20;99.90;;;;;;6161099;23;20005;-76
2021/08/24 01:30:35;;;;;;;9.40;5.30;;;15.10;99.90;;;;;;6159454;23;20009;-76
2021/08/24 01:33:08;;;;;;;11.18;6.13;;;15.10;99.90;;;;;;6134482;23;20025;-76
2021/08/24 01:35:44;;;;;;;13.90;6.18;;;15.10;99.90;;;;;;6162835;23;20053;-76
2021/08/24 01:38:18;;;;;;;6.40;5.55;;;15.00;99.90;;;;;;6167454;23;20001;-76
2021/08/24 01:40:55;;;;;;;10.23;6.22;;;15.00;99.90;;;;;;6163007;23;20126;-76
2021/08/24 01:43:31;;;;;;;8.25;6.05;;;15.00;99.90;;;;;;6159403;23;20074;-76
2021/08/24 01:46:31;;;;;;;9.57;5.80;;;15.00;99.90;;;;;;6158455;23;20005;-77
2021/08/24 01:49:01;;;;;;;7.82;5.72;;;15.00;99.90;;;;;;6012716;23;20504;-76
2021/08/24 01:51:34;;;;;;;9.55;5.75;;;15.00;99.90;;;;;;6013159;23;20008;-76
2021/08/24 01:54:05;;;;;;;12.45;6.20;;;15.00;99.90;;;;;;6009602;23;20487;-76
2021/08/24 01:56:37;;;;;;;9.25;5.50;;;15.00;99.90;;;;;;6008691;23;20007;-76
2021/08/24 01:59:11;;;;;;;10.15;6.28;;;15.00;99.90;;;;;;6008888;23;21095;-76
2021/08/24 02:01:47;;;;;;;12.88;6.47;;;14.90;99.90;;;;;;6008214;23;20012;-76
2021/08/24 02:04:18;;;;;;;9.27;6.60;;;14.90;99.90;;;;;;5984699;23;20340;-76
2021/08/24 02:06:46;;;;;;;9.38;5.97;;;14.90;99.90;;;;;;6008203;23;20365;-76
2021/08/24 02:09:46;;;;;;;6.78;5.90;;;14.90;99.90;;;;;;6009045;23;20380;-76
2021/08/24 02:12:13;;;;;;;6.90;6.10;;;14.90;99.90;;;;;;6009111;23;20012;-76
2021/08/24 02:14:41;;;;;;;9.20;5.90;;;14.90;99.90;;;;;;6008955;23;20008;-76
2021/08/24 02:17:09;;;;;;;9.38;5.93;;;14.90;99.90;;;;;;6009289;23;20380;-75
2021/08/24 02:19:41;;;;;;;9.73;6.00;;;14.80;99.90;;;;;;6009392;23;20011;-75
2021/08/24 02:22:18;;;;;;;6.97;5.70;;;14.90;99.90;;;;;;6009096;23;20091;-77
2021/08/24 02:24:51;;;;;;;10.05;5.82;;;14.80;99.90;;;;;;6019491;23;20449;-77
2021/08/24 02:27:22;;;;;;;6.22;5.50;;;14.90;99.90;;;;;;6127908;23;20056;-77
2021/08/24 02:29:48;;;;;;;9.35;5.75;;;14.80;99.90;;;;;;6129878;23;20010;-76
2021/08/24 02:32:29;;;;;;;10.50;5.78;;;14.80;99.90;;;;;;6130147;23;20057;-77
2021/08/24 02:35:06;;;;;;;10.35;6.15;;;14.80;99.90;;;;;;6130149;23;20380;-76
2021/08/24 02:37:41;;;;;;;10.32;6.53;;;14.80;99.90;;;;;;6129877;23;20002;-77
2021/08/24 02:40:39;;;;;;;7.50;5.30;;;14.80;99.90;;;;;;6100602;23;20021;-77
2021/08/24 02:43:26;;;;;;;9.32;5.63;;;14.80;99.90;;;;;;6130105;23;20012;-76
2021/08/24 02:46:19;;;;;;;6.22;5.45;;;14.70;99.90;;;;;;6131180;23;20017;-77
2021/08/24 02:48:50;;;;;;;8.60;5.68;;;14.70;99.90;;;;;;6125841;23;20013;-77
2021/08/24 02:51:18;;;;;;;9.77;6.05;;;14.70;99.90;;;;;;6127154;23;20012;-78
2021/08/24 02:54:07;;;;;;;10.25;6.45;;;14.70;99.90;;;;;;6128081;23;20065;-77
2021/08/24 02:56:33;;;;;;;12.60;6.80;;;14.70;99.90;;;;;;6131645;23;20077;-77
2021/08/24 02:58:58;;;;;;;10.48;5.97;;;14.70;99.90;;;;;;6133101;23;20444;-76
2021/08/24 03:01:24;;;;;;;7.88;6.88;;;14.70;99.90;;;;;;6128185;23;20009;-77
2021/08/24 03:03:50;;;;;;;8.73;6.43;;;14.60;99.90;;;;;;6136617;23;20006;-76
2021/08/24 03:06:15;;;;;;;9.82;6.70;;;14.60;99.90;;;;;;6128804;23;20005;-75
2021/08/24 03:08:42;;;;;;;6.47;5.78;;;14.60;99.90;;;;;;6127647;23;20006;-77
2021/08/24 03:11:09;;;;;;;8.35;5.55;;;14.70;99.90;;;;;;6127323;23;20029;-76
2021/08/24 03:13:49;;;;;;;7.88;6.07;;;14.70;99.90;;;;;;6127282;23;20010;-75
2021/08/24 03:16:23;;;;;;;8.43;5.50;;;14.70;99.90;;;;;;6132274;23;20006;-76
2021/08/24 03:18:55;;;;;;;7.47;6.22;;;14.70;99.90;;;;;;6126081;23;20018;-76
2021/08/24 03:21:24;;;;;;;8.65;5.70;;;14.70;99.90;;;;;;6127284;23;20012;-77
2021/08/24 03:23:51;;;;;;;10.23;5.30;;;14.60;99.90;;;;;;6131904;23;20373;-76
2021/08/24 03:26:29;;;;;;;7.25;5.50;;;14.70;99.90;;;;;;6135442;23;20002;-76
2021/08/24 03:28:55;;;;;;;6.85;5.57;;;14.70;99.90;;;;;;6131181;23;20057;-76
2021/08/24 03:31:22;;;;;;;10.23;6.07;;;14.60;99.90;;;;;;6129470;23;20070;-77
2021/08/24 03:33:48;;;;;;;10.05;5.82;;;14.60;99.90;;;;;;6130334;23;20009;-76
2021/08/24 03:36:15;;;;;;;6.78;4.97;;;14.60;99.90;;;;;;6129602;23;20383;-75
2021/08/24 03:38:41;;;;;;;9.32;6.07;;;14.60;99.90;;;;;;6127933;23;20090;-76
2021/08/24 03:41:09;;;;;;;9.07;5.72;;;14.60;99.90;;;;;;6131797;23;20009;-76
2021/08/24 03:43:36;;;;;;;10.27;5.68;;;14.60;99.90;;;;;;6129333;23;20426;-77
2021/08/24 03:46:02;;;;;;;10.50;5.72;;;14.60;99.90;;;;;;6126052;23;20002;-77
2021/08/24 03:48:28;;;;;;;6.50;5.28;;;14.60;99.90;;;;;;6126316;23;20129;-76
2021/08/24 03:50:54;;;;;;;8.15;5.70;;;14.60;99.90;;;;;;6129476;23;20006;-77
2021/08/24 03:53:20;;;;;;;6.15;5.53;;;14.60;99.90;;;;;;6127553;23;20018;-77
2021/08/24 03:55:45;;;;;;;6.78;5.47;;;14.60;99.90;;;;;;6125062;23;20002;-77
2021/08/24 03:58:13;;;;;;;9.10;5.13;;;14.60;99.90;;;;;;6124975;23;20357;-77
2021/08/24 04:00:42;;;;;;;10.23;5.50;;;14.60;99.90;;;;;;6126931;23;20009;-77
2021/08/24 04:03:08;;;;;;;10.10;4.80;;;14.60;99.90;;;;;;6126106;23;20449;-77
2021/08/24 04:05:33;;;;;;;8.40;5.57;;;14.70;99.90;;;;;;6125590;23;20025;-77
2021/08/24 04:07:59;;;;;;;8.82;5.50;;;14.70;99.90;;;;;;6125603;23;20321;-77
2021/08/24 04:10:25;;;;;;;6.47;5.43;;;14.60;99.90;;;;;;6125298;23;20006;-77
2021/08/24 04:12:51;;;;;;;8.60;5.63;;;14.70;99.90;;;;;;6125895;23;20141;-77
2021/08/24 04:15:16;;;;;;;10.68;5.43;;;14.60;99.90;;;;;;6126589;23;20062;-76
2021/08/24 04:17:42;;;;;;;9.77;5.65;;;14.70;99.90;;;;;;6142680;23;20021;-76
2021/08/24 04:20:11;;;;;;;9.88;5.82;;;14.60;99.90;;;;;;6157922;23;20425;-77
2021/08/24 04:22:39;;;;;;;7.90;5.95;;;14.60;99.90;;;;;;6154384;23;20012;-78
2021/08/24 04:25:05;;;;;;;6.95;6.10;;;14.70;99.90;;;;;;6128526;23;20048;-76
2021/08/24 04:27:31;;;;;;;9.68;6.90;;;14.60;99.90;;;;;;6157250;23;20005;-77
2021/08/24 04:29:57;;;;;;;9.52;6.72;;;14.70;99.90;;;;;;6154780;23;20001;-77
2021/08/24 04:32:26;;;;;;;6.93;6.22;;;14.70;99.90;;;;;;6156536;23;20014;-75
2021/08/24 04:34:52;;;;;;;7.93;7.13;;;14.70;99.90;;;;;;6158181;23;20048;-76
2021/08/24 04:37:18;;;;;;;11.75;7.82;;;14.60;99.90;;;;;;6156450;23;20005;-76
2021/08/24 04:39:44;;;;;;;8.18;6.95;;;14.70;99.90;;;;;;6155430;23;20059;-77
2021/08/24 04:42:09;;;;;;;9.93;7.60;;;14.70;99.90;;;;;;6154809;23;20005;-77
2021/08/24 04:44:35;;;;;;;11.55;8.07;;;14.70;99.90;;;;;;6156395;23;20006;-77
2021/08/24 04:47:01;;;;;;;12.82;8.35;;;14.70;99.90;;;;;;6158462;23;20032;-76
2021/08/24 04:49:26;;;;;;;10.52;7.40;;;14.70;99.90;;;;;;6159972;23;20076;-77
2021/08/24 04:51:52;;;;;;;10.18;8.48;;;14.70;99.90;;;;;;6154446;23;20016;-77
2021/08/24 04:54:18;;;;;;;13.48;9.23;;;14.70;99.90;;;;;;6157041;23;20028;-77
2021/08/24 04:56:44;;;;;;;10.88;7.90;;;14.60;99.90;;;;;;6156239;23;20001;-77
2021/08/24 04:59:10;;;;;;;9.32;8.20;;;14.60;99.90;;;;;;6131763;23;20008;-76
2021/08/24 05:01:35;;;;;;;8.82;7.80;;;14.60;99.90;;;;;;6159344;23;20060;-76
2021/08/24 05:04:01;;;;;;;9.50;7.50;;;14.60;99.90;;;;;;6159935;23;20036;-77
2021/08/24 05:06:27;;;;;;;11.05;7.40;;;14.60;99.90;;;;;;6158113;23;20084;-77
2021/08/24 05:08:52;;;;;;;10.55;7.97;;;14.60;99.90;;;;;;6154313;23;20013;-76
2021/08/24 05:11:18;;;;;;;11.45;7.47;;;14.70;99.90;;;;;;6168978;23;20006;-77
2021/08/24 05:13:44;;;;;;;8.55;6.47;;;14.60;99.90;;;;;;6168437;23;20392;-77
2021/08/24 05:16:10;;;;;;;8.05;6.45;;;14.60;99.90;;;;;;6162708;23;20009;-76
2021/08/24 05:18:37;;;;;;;9.07;6.45;;;14.60;99.90;;;;;;6155148;23;20025;-77
2021/08/24 05:21:13;;;;;;;7.30;5.15;;;14.70;99.90;;;;;;6157144;23;20001;-78
2021/08/24 05:23:39;;;;;;;6.95;4.88;;;14.60;99.90;;;;;;6154740;23;20084;-76
2021/08/24 05:26:18;;;;;;;7.53;4.78;;;14.60;99.90;;;;;;6159544;23;20002;-77
2021/08/24 05:28:44;;;;;;;8.57;4.97;;;14.60;99.90;;;;;;6156817;23;20462;-77
2021/08/24 05:31:10;;;;;;;9.60;4.88;;;14.50;99.90;;;;;;6154167;23;20002;-77
2021/08/24 05:33:35;;;;;;;7.55;4.70;;;14.60;99.90;;;;;;6128722;23;20029;-76
2021/08/24 05:36:03;;;;;;;16.15;6.53;;;14.60;99.90;;;;;;6154785;23;20357;-76
2021/08/24 05:38:30;;;;;;;8.80;5.82;;;14.50;99.90;;;;;;6153899;23;20001;-77
2021/08/24 05:40:56;;;;;;;7.03;4.35;;;14.50;99.90;;;;;;6156216;23;20570;-76
2021/08/24 05:43:25;;;;;;;6.15;4.85;;;14.50;99.90;;;;;;6157385;23;20017;-76
2021/08/24 05:45:56;;;;;;;8.43;6.72;;;14.50;99.90;;;;;;6155347;23;20016;-77
2021/08/24 05:48:22;;;;;;;6.45;4.10;;;14.40;99.90;;;;;;6155777;23;20008;-77
2021/08/24 05:50:48;;;;;;;7.55;3.90;;;14.40;99.90;;;;;;6155779;23;20001;-76
2021/08/24 05:53:13;;;;;;;8.93;4.60;;;14.40;99.90;;;;;;6156814;23;20013;-77
2021/08/24 05:55:39;;;;;;;7.78;5.53;;;14.40;99.90;;;;;;6161093;23;20001;-77
2021/08/24 05:58:05;;;;;;;6.15;4.43;;;14.40;99.90;;;;;;6155321;23;20076;-77
2021/08/24 06:00:30;;;;;;;4.90;4.15;;;14.40;99.90;;;;;;6152557;23;20451;-77
2021/08/24 06:02:56;;;;;;;6.05;4.40;;;14.40;99.90;;;;;;6154467;23;20006;-77
2021/08/24 06:05:22;;;;;;;7.82;3.83;;;14.30;99.90;;;;;;6153814;23;20009;-77
2021/08/24 06:07:47;;;;;;;6.82;4.05;;;14.30;99.90;;;;;;6153626;23;20370;-76
2021/08/24 06:10:13;;;;;;;6.45;4.57;;;14.30;99.90;;;;;;6155348;23;20013;-76
2021/08/24 06:12:39;;;;;;;4.70;3.60;;;14.30;99.90;;;;;;6159688;23;20087;-77
2021/08/24 06:15:05;;;;;;;9.73;3.58;;;14.30;99.90;;;;;;6157347;23;20005;-77
2021/08/24 06:17:31;;;;;;;7.90;4.45;;;14.30;99.90;;;;;;6124624;23;20397;-77
2021/08/24 06:19:57;;;;;;;6.75;3.72;;;14.20;99.90;;;;;;6124446;23;20002;-77
2021/08/24 06:22:22;;;;;;;6.78;4.93;;;14.20;99.90;;;;;;6123991;23;20085;-77
2021/08/24 06:24:48;;;;;;;6.43;4.72;;;14.20;99.90;;;;;;6128126;23;20033;-78
2021/08/24 06:27:14;;;;;;;4.45;3.15;;;14.30;99.90;;;;;;6130765;23;20001;-76
2021/08/24 06:29:42;;;;;;;5.85;3.78;;;14.20;99.90;;;;;;6131165;23;20006;-77
2021/08/24 06:32:29;;;;;;;7.55;3.72;;;14.30;99.90;;;;;;6126847;23;20053;-77
2021/08/24 06:34:58;;;;;;;7.65;4.05;;;14.20;99.90;;;;;;6126756;23;20040;-77
2021/08/24 06:37:27;;;;;;;7.28;4.60;;;14.20;99.90;;;;;;6130652;23;20034;-77
2021/08/24 06:39:53;;;;;;;15.90;4.95;;;14.20;99.90;;;;;;6132309;23;20002;-77
2021/08/24 06:42:19;;;;;;;8.13;3.17;;;14.20;99.90;;;;;;6128875;23;20013;-76
2021/08/24 06:44:45;;;;;;;8.13;5.45;;;14.20;99.90;;;;;;6127362;23;20425;-77
2021/08/24 06:47:10;;;;;;;10.68;5.22;;;14.20;99.90;;;;;;6125600;23;20006;-78
2021/08/24 06:49:36;;;;;;;11.40;5.72;;;14.20;99.90;;;;;;6126018;23;20009;-77
2021/08/24 06:52:04;;;;;;;6.65;3.50;;;14.30;99.90;;;;;;6126760;23;20038;-76
2021/08/24 06:54:33;;;;;;;6.85;3.67;;;14.30;99.90;;;;;;6130076;23;20021;-77
2021/08/24 06:57:02;;;;;;;7.55;5.10;;;14.20;99.90;;;;;;6127506;23;20062;-77
2021/08/24 06:59:27;;;;;;;10.85;5.50;;;14.20;99.90;;;;;;6124901;23;20029;-77
2021/08/24 07:01:53;;;;;;;6.35;4.38;;;14.30;99.90;;;;;;6125397;23;20002;-77
2021/08/24 07:04:19;;;;;;;7.07;5.00;;;14.20;99.90;;;;;;6126163;23;20002;-77
2021/08/24 07:06:47;;;;;;;7.38;4.55;;;14.20;99.90;;;;;;6125755;23;20013;-76
2021/08/24 07:09:14;;;;;;;5.95;3.70;;;14.20;99.90;;;;;;6127598;23;20006;-77
2021/08/24 07:11:40;;;;;;;8.65;5.47;;;14.20;99.90;;;;;;6129253;23;20002;-75
2021/08/24 07:14:06;;;;;;;7.47;3.75;;;14.20;99.90;;;;;;6125179;23;20045;-76
2021/08/24 07:16:32;;;;;;;7.85;3.92;;;14.20;99.90;;;;;;6128550;23;20380;-76
2021/08/24 07:18:58;;;;;;;8.68;5.43;;;14.10;99.90;;;;;;6152360;23;20017;-77
2021/08/24 07:21:25;;;;;;;11.48;3.83;;;14.10;99.90;;;;;;6128806;23;20002;-77
2021/08/24 07:23:51;;;;;;;9.68;4.43;;;14.20;99.90;;;;;;6153650;23;20013;-77
2021/08/24 07:26:18;;;;;;;10.07;4.68;;;14.10;99.90;;;;;;6155211;23;20016;-76
2021/08/24 07:28:44;;;;;;;7.63;3.15;;;14.20;99.90;;;;;;6153986;23;20001;-77
2021/08/24 07:31:12;;;;;;;10.18;4.88;;;14.10;99.90;;;;;;6154766;23;20002;-77
2021/08/24 07:33:38;;;;;;;12.27;5.35;;;14.10;99.90;;;;;;6121032;23;20019;-77
2021/08/24 07:36:04;;;;;;;10.88;3.47;;;14.10;99.90;;;;;;6129184;23;20344;-76
2021/08/24 07:38:30;;;;;;;9.30;3.75;;;14.20;99.90;;;;;;6156755;23;20008;-75
2021/08/24 07:40:57;;;;;;;5.57;3.78;;;14.20;99.90;;;;;;6159167;23;20009;-77
2021/08/24 07:43:23;;;;;;;8.65;4.10;;;14.20;99.90;;;;;;6159355;23;20009;-77
2021/08/24 07:45:49;;;;;;;8.73;3.58;;;14.20;99.90;;;;;;6158934;23;19998;-78
2021/08/24 07:48:15;;;;;;;8.93;2.88;;;14.30;99.90;;;;;;6162905;23;20464;-77
2021/08/24 07:50:41;;;;;;;5.93;3.45;;;14.20;99.90;;;;;;6160476;23;20032;-78
2021/08/24 07:53:07;;;;;;;16.02;3.85;;;14.20;99.90;;;;;;6158896;23;20464;-77
2021/08/24 07:55:35;;;;;;;8.20;3.42;;;14.20;99.90;;;;;;6160015;23;20008;-77
2021/08/24 07:58:01;;;;;;;8.02;3.28;;;14.10;99.90;;;;;;6159666;23;20005;-75
2021/08/24 08:00:26;;;;;;;11.07;4.03;;;14.20;99.90;;;;;;6159263;23;20010;-77
2021/08/24 08:02:52;;;;;;;6.97;3.10;;;14.20;99.90;;;;;;6158037;23;20005;-78
2021/08/24 08:05:18;;;;;;;8.38;4.47;;;14.20;99.90;;;;;;6155558;23;20384;-77
2021/08/24 08:07:45;;;;;;;5.47;3.15;;;14.10;99.90;;;;;;6161011;23;20001;-77
2021/08/24 08:10:12;;;;;;;8.70;3.50;;;14.20;99.90;;;;;;6161320;23;20016;-77
2021/08/24 08:12:38;;;;;;;5.50;3.33;;;14.10;99.90;;;;;;6156782;23;20009;-77
2021/08/24 08:15:05;;;;;;;8.00;2.78;;;14.10;99.90;;;;;;6157659;23;20084;-78
2021/08/24 08:17:31;;;;;;;12.48;4.07;;;14.20;99.90;;;;;;6154148;23;20017;-77
2021/08/24 08:19:56;;;;;;;6.00;3.35;;;14.30;99.90;;;;;;6157129;23;20040;-77
2021/08/24 08:22:22;;;;;;;5.85;4.30;;;14.20;99.90;;;;;;6158624;23;20584;-77
2021/08/24 08:24:48;;;;;;;6.22;2.45;;;14.20;99.90;;;;;;6157314;23;20025;-77
2021/08/24 08:27:14;;;;;;;6.32;3.90;;;14.30;99.90;;;;;;6156204;23;20009;-77
2021/08/24 08:29:40;;;;;;;6.80;3.38;;;14.30;99.90;;;;;;6160385;23;20009;-77
2021/08/24 08:32:10;;;;;;;9.93;4.32;;;14.30;99.90;;;;;;6158012;23;20440;-77
2021/08/24 08:34:39;;;;;;;7.45;4.45;;;14.30;99.90;;;;;;6156751;23;20511;-77
2021/08/24 08:37:06;;;;;;;6.65;2.92;;;14.30;99.90;;;;;;6160020;23;21139;-77
2021/08/24 08:39:32;;;;;;;13.20;3.92;;;14.40;99.90;;;;;;6162776;23;20452;-76
2021/08/24 08:42:16;;;;;;;6.22;2.75;;;14.30;99.90;;;;;;6156037;23;20004;-77
2021/08/24 08:44:55;;;;;;;14.95;3.97;;;14.40;99.90;;;;;;6155832;23;20076;-77
2021/08/24 08:47:59;;;;;;;13.82;4.20;;;14.50;99.90;;;;;;6157916;23;20006;-76
2021/08/24 08:50:42;;;;;;;6.40;2.70;;;14.60;99.90;;;;;;6155144;23;20052;-77
2021/08/24 08:53:29;;;;;;;6.90;3.70;;;14.60;99.90;;;;;;6155237;23;20039;-77
2021/08/24 08:56:04;;;;;;;8.25;4.13;;;14.70;99.90;;;;;;6128555;23;20009;-77
2021/08/24 08:58:33;;;;;;;19.33;5.13;;;14.60;99.90;;;;;;6128778;23;20016;-75
2021/08/24 09:01:45;;;;;;;6.00;3.90;;;14.60;99.90;;;;;;6127837;23;20052;-77
2021/08/24 09:04:21;;;;;;;8.32;3.70;;;14.70;99.90;;;;;;6152857;23;20393;-77
2021/08/24 09:06:50;;;;;;;6.82;3.50;;;14.70;99.90;;;;;;6152284;23;20001;-77
2021/08/24 09:09:19;;;;;;;10.55;2.90;;;14.80;99.90;;;;;;6149589;23;20060;-77
2021/08/24 09:11:53;;;;;;;5.82;3.20;;;14.80;99.90;;;;;;6152341;23;20409;-75
2021/08/24 09:14:31;;;;;;;11.35;2.80;;;14.90;99.90;;;;;;6154753;23;20009;-77
2021/08/24 09:17:02;;;;;;;4.03;2.05;;;14.90;99.90;;;;;;6130467;23;20035;-77
2021/08/24 09:19:46;;;;;;;6.30;2.30;;;15.00;99.90;;;;;;6154354;23;20028;-74
2021/08/24 09:22:15;;;;;;;2.92;1.73;;;15.00;99.90;;;;;;6153027;23;20091;-77
2021/08/24 09:24:40;;;;;;;5.28;2.35;;;15.00;99.90;;;;;;6126030;23;20337;-78
2021/08/24 09:27:34;;;;;;;3.38;1.83;;;15.00;99.90;;;;;;6153889;23;20006;-76
2021/08/24 09:30:01;;;;;;;3.92;1.98;;;14.90;99.90;;;;;;6155585;23;20005;-75
2021/08/24 09:32:27;;;;;;;4.57;2.13;;;14.90;99.90;;;;;;6151197;23;20024;-77
2021/08/24 09:35:26;;;;;;;4.15;1.95;;;14.90;99.90;;;;;;6154159;23;20384;-77
2021/08/24 09:37:52;;;;;;;5.82;1.60;;;14.90;99.90;;;;;;6155643;23;20061;-76
2021/08/24 09:40:45;;;;;;;5.25;1.50;;;14.90;99.90;;;;;;6153686;23;20123;-76
2021/08/24 09:43:22;;;;;;;4.88;1.80;;;15.00;99.90;;;;;;6153084;23;20005;-74
2021/08/24 09:46:01;;;;;;;6.20;2.00;;;15.00;99.90;;;;;;6152097;23;20002;-77
2021/08/24 09:48:28;;;;;;;4.97;2.05;;;14.90;99.90;;;;;;6151527;23;20010;-76
2021/08/24 09:51:14;;;;;;;6.35;2.40;;;15.00;99.90;;;;;;6121685;23;20040;-76
2021/08/24 09:53:40;;;;;;;2.28;1.05;;;14.90;99.90;;;;;;6150562;23;20024;-75
2021/08/24 09:56:09;;;;;;;5.00;2.00;;;15.00;99.90;;;;;;6149254;23;20380;-77
2021/08/24 09:58:38;;;;;;;6.60;2.38;;;14.90;99.90;;;;;;6151484;23;20076;-75
2021/08/24 10:01:11;;;;;;;3.90;1.55;;;14.90;99.90;;;;;;6153641;23;20010;-76
2021/08/24 10:04:03;;;;;;;1.75;1.13;;;14.90;99.90;;;;;;6152835;23;20005;-77
2021/08/24 10:06:34;;;;;;;5.38;1.40;;;15.00;99.90;;;;;;6154724;23;20294;-77
2021/08/24 10:09:17;;;;;;;2.60;1.25;;;15.00;99.90;;;;;;6153822;23;20015;-74
2021/08/24 10:11:44;;;;;;;1.63;0.77;;;15.00;99.90;;;;;;6153950;23;20503;-77
2021/08/24 10:14:21;;;;;;;2.13;1.08;;;15.00;99.90;;;;;;6155483;23;20051;-74
2021/08/24 10:16:48;;;;;;;5.32;1.13;;;15.00;99.90;;;;;;6131854;23;20005;-76
2021/08/24 10:19:21;;;;;;;3.65;1.30;;;14.90;99.90;;;;;;6158652;23;20020;-76
2021/08/24 10:22:23;;;;;;;7.30;1.60;;;15.00;99.90;;;;;;6154714;23;20052;-79
2021/08/24 10:25:04;;;;;;;2.42;1.60;;;15.00;99.90;;;;;;6132493;23;20016;-77
2021/08/24 10:27:34;;;;;;;5.97;2.10;;;15.00;99.90;;;;;;6157939;23;20039;-77
2021/08/24 10:30:05;;;;;;;3.80;1.23;;;15.10;99.90;;;;;;6107304;23;20392;-75
2021/08/24 10:32:38;;;;;;;2.20;0.82;;;15.10;99.90;;;;;;6154393;23;20021;-74
2021/08/24 10:35:13;;;;;;;3.15;1.38;;;15.10;99.90;;;;;;6155488;23;20065;-76
2021/08/24 10:37:48;;;;;;;3.72;1.55;;;15.20;99.90;;;;;;6158143;23;20030;-76
2021/08/24 10:40:22;;;;;;;2.50;1.27;;;15.20;99.90;;;;;;6153582;23;20021;-75
2021/08/24 10:43:11;;;;;;;2.75;0.85;;;15.30;99.90;;;;;;6152658;23;20005;-76
2021/08/24 10:45:59;;;;;;;3.03;1.60;;;15.20;99.90;;;;;;6153823;23;20013;-76
2021/08/24 10:48:25;;;;;;;3.22;1.17;;;15.30;99.90;;;;;;6127935;23;20006;-76
2021/08/24 10:51:18;;;;;;;2.60;1.40;;;15.40;99.90;;;;;;6152856;23;20137;-76
2021/08/24 10:53:56;;;;;;;3.28;1.77;;;15.50;99.90;;;;;;6152353;23;20016;-76
2021/08/24 10:56:34;;;;;;;5.00;1.33;;;15.50;99.90;;;;;;6153405;23;20009;-75
2021/08/24 10:59:17;;;;;;;7.25;1.50;;;15.60;99.90;;;;;;6153989;23;20012;-76
2021/08/24 11:01:54;;;;;;;7.13;1.88;;;15.70;99.90;;;;;;6153953;23;20017;-76
2021/08/24 11:04:57;;;;;;;6.70;2.20;;;15.80;99.90;;;;;;6153992;23;20089;-75
2021/08/24 11:07:41;;;;;;;4.65;1.45;;;15.80;99.90;;;;;;6154098;23;20032;-76
2021/08/24 11:10:28;;;;;;;5.80;2.50;;;15.90;99.90;;;;;;6152772;23;20005;-75
2021/08/24 11:13:26;;;;;;;6.05;2.30;;;16.00;99.90;;;;;;6151996;23;20014;-76
2021/08/24 11:16:11;;;;;;;6.10;1.95;;;16.10;99.90;;;;;;6153940;23;20005;-75
2021/08/24 11:18:41;;;;;;;4.13;1.92;;;16.10;99.90;;;;;;6120870;23;20041;-74
2021/08/24 11:21:22;;;;;;;3.47;1.50;;;16.10;99.90;;;;;;6128131;23;20013;-74
2021/08/24 11:24:09;;;;;;;3.15;1.63;;;16.20;99.90;;;;;;6152736;23;20449;-77
2021/08/24 11:27:03;;;;;;;4.80;2.10;;;16.20;99.90;;;;;;6142505;23;20285;-73
2021/08/24 11:29:44;;;;;;;3.83;2.28;;;16.30;99.90;;;;;;6150373;23;20013;-74
2021/08/24 11:32:34;;;;;;;6.50;2.33;;;16.40;99.90;;;;;;6151615;23;20006;-73
2021/08/24 11:35:06;;;;;;;5.20;1.90;;;16.50;99.90;;;;;;6125080;23;20445;-74
2021/08/24 11:37:59;;;;;;;3.38;1.65;;;16.50;99.90;;;;;;6151376;23;20005;-73
2021/08/24 11:41:03;;;;;;;4.38;2.05;;;16.50;99.90;;;;;;6127306;23;20005;-73
2021/08/24 11:43:39;;;;;;;3.72;1.85;;;16.40;99.90;;;;;;6153981;23;20046;-73
2021/08/24 11:46:17;;;;;;;3.58;1.35;;;16.40;99.90;;;;;;6153146;23;20433;-73
2021/08/24 11:48:48;;;;;;;5.35;1.70;;;16.30;99.90;;;;;;6153425;23;20072;-74
2021/08/24 11:51:22;;;;;;;10.32;2.03;;;16.30;99.90;;;;;;6126283;23;20006;-76
2021/08/24 11:53:48;;;;;;;5.30;1.70;;;16.30;99.90;;;;;;6153520;23;20024;-76
2021/08/24 11:56:42;;;;;;;5.57;2.00;;;16.30;99.90;;;;;;6127708;23;20080;-75
2021/08/24 11:59:16;;;;;;;4.35;1.83;;;16.30;99.90;;;;;;6137238;23;20068;-76
2021/08/24 12:01:46;;;;;;;2.42;1.40;;;16.30;99.90;;;;;;6155681;23;20002;-76
2021/08/24 12:04:14;;;;;;;4.13;1.73;;;16.20;99.90;;;;;;6156027;23;20005;-76
2021/08/24 12:06:57;;;;;;;3.47;1.38;;;16.20;99.90;;;;;;6154194;23;20456;-76
2021/08/24 12:09:53;;;;;;;6.05;1.95;;;16.30;99.90;;;;;;6153969;23;20386;-76
2021/08/24 12:12:43;;;;;;;4.03;1.60;;;16.30;99.90;;;;;;6156229;23;20510;-76
2021/08/24 12:15:26;;;;;;;6.57;1.70;;;16.30;99.90;;;;;;6157217;23;20036;-76
2021/08/24 12:18:19;;;;;;;5.63;1.67;;;16.30;99.90;;;;;;6157365;23;20622;-76
2021/08/24 12:21:18;;;;;;;5.97;1.77;;;16.30;99.90;;;;;;6155592;23;20001;-76
2021/08/24 12:23:44;;;;;;;3.47;1.52;;;16.40;99.90;;;;;;6129449;23;20009;-73
2021/08/24 12:26:32;;;;;;;2.83;1.17;;;16.40;99.90;;;;;;6156904;23;20025;-75
2021/08/24 12:29:36;;;;;;;6.32;1.67;;;16.40;99.90;;;;;;6156841;23;20463;-75
2021/08/24 12:32:08;;;;;;;5.70;1.73;;;16.30;99.90;;;;;;6010239;23;20129;-76
2021/08/24 12:34:34;;;;;;;7.30;1.80;;;16.20;99.90;;;;;;6008291;23;20147;-77
2021/08/24 12:37:01;;;;;;;5.55;1.30;;;16.30;99.90;;;;;;6022918;23;20012;-76
2021/08/24 12:39:53;;;;;;;4.45;1.42;;;16.30;99.90;;;;;;6028137;23;20014;-76
2021/08/24 12:42:28;;;;;;;3.00;1.48;;;16.30;99.90;;;;;;6011568;23;20008;-76
2021/08/24 12:44:59;;;;;;;3.00;1.23;;;16.30;99.90;;;;;;6016842;23;20063;-75
2021/08/24 12:47:30;;;;;;;4.47;1.23;;;16.30;99.90;;;;;;6020049;23;20011;-75
2021/08/24 12:50:18;;;;;;;2.15;1.13;;;16.30;99.90;;;;;;6024347;23;20036;-75
2021/08/24 12:52:46;;;;;;;3.15;1.33;;;16.20;99.90;;;;;;6019600;23;20018;-76
2021/08/24 12:55:34;;;;;;;2.72;1.15;;;16.30;99.90;;;;;;5996046;23;20083;-76
2021/08/24 12:58:24;;;;;;;3.22;1.40;;;16.30;99.90;;;;;;6020011;23;20071;-75
2021/08/24 13:01:09;;;;;;;4.25;1.42;;;16.30;99.90;;;;;;6020504;23;20007;-75
2021/08/24 13:03:38;;;;;;;5.20;1.50;;;16.20;99.90;;;;;;5999715;23;20090;-76
2021/08/24 13:06:26;;;;;;;4.03;1.10;;;16.30;99.90;;;;;;6022799;23;20008;-75
2021/08/24 13:09:13;;;;;;;3.05;1.40;;;16.30;99.90;;;;;;6107206;23;20013;-76
2021/08/24 13:11:40;;;;;;;4.13;1.15;;;16.30;99.90;;;;;;6170787;23;20001;-75
2021/08/24 13:14:49;;;;;;;2.63;1.27;;;16.30;99.90;;;;;;6169411;23;20019;-76